sensor_id;sensor_type;location;lat;lon;timestamp;temperature;humidity
54832;DHT22;40730;53.068;6.572;2022-07-22T00:00:57;15.00;99.90
54832;DHT22;40730;53.068;6.572;2022-07-22T00:03:23;15.00;99.90
54832;DHT22;40730;53.068;6.572;2022-07-22T00:05:48;15.00;99.90
54832;DHT22;40730;53.068;6.572;2022-07-22T00:08:14;15.00;99.90
54832;DHT22;40730;53.068;6.572;2022-07-22T00:10:40;15.00;99.90
54832;DHT22;40730;53.068;6.572;2022-07-22T00:13:06;15.00;99.90
54832;DHT22;40730;53.068;6.572;2022-07-22T00:15:32;15.10;99.90
54832;DHT22;40730;53.068;6.572;2022-07-22T00:17:58;15.10;99.90
54832;DHT22;40730;53.068;6.572;2022-07-22T00:20:23;15.10;99.90
54832;DHT22;40730;53.068;6.572;2022-07-22T00:22:49;15.10;99.90
54832;DHT22;40730;53.068;6.572;2022-07-22T00:25:15;15.10;99.90
54832;DHT22;40730;53.068;6.572;2022-07-22T00:27:40;15.10;99.90
54832;DHT22;40730;53.068;6.572;2022-07-22T00:30:06;15.10;99.90
54832;DHT22;40730;53.068;6.572;2022-07-22T00:32:32;15.10;99.90
54832;DHT22;40730;53.068;6.572;2022-07-22T00:34:58;15.10;99.90
54832;DHT22;40730;53.068;6.572;2022-07-22T00:37:23;15.10;99.90
54832;DHT22;40730;53.068;6.572;2022-07-22T00:39:49;15.10;99.90
54832;DHT22;40730;53.068;6.572;2022-07-22T00:42:15;15.10;99.90
54832;DHT22;40730;53.068;6.572;2022-07-22T00:44:40;15.10;99.90
54832;DHT22;40730;53.068;6.572;2022-07-22T00:47:06;15.10;99.90
54832;DHT22;40730;53.068;6.572;2022-07-22T00:49:32;15.10;99.90
54832;DHT22;40730;53.068;6.572;2022-07-22T00:51:58;15.10;99.90
54832;DHT22;40730;53.068;6.572;2022-07-22T00:54:24;15.10;99.90
54832;DHT22;40730;53.068;6.572;2022-07-22T00:56:50;15.10;99.90
54832;DHT22;40730;53.068;6.572;2022-07-22T00:59:16;15.10;99.90
54832;DHT22;40730;53.068;6.572;2022-07-22T01:01:42;15.10;99.90
54832;DHT22;40730;53.068;6.572;2022-07-22T01:04:07;15.10;99.90
54832;DHT22;40730;53.068;6.572;2022-07-22T01:06:33;15.10;99.90
54832;DHT22;40730;53.068;6.572;2022-07-22T01:08:59;14.70;99.90
54832;DHT22;40730;53.068;6.572;2022-07-22T01:11:25;15.10;99.90
54832;DHT22;40730;53.068;6.572;2022-07-22T01:13:52;15.00;99.90
54832;DHT22;40730;53.068;6.572;2022-07-22T01:16:18;15.00;99.90
54832;DHT22;40730;53.068;6.572;2022-07-22T01:18:45;15.10;99.90
54832;DHT22;40730;53.068;6.572;2022-07-22T01:21:12;15.00;99.90
54832;DHT22;40730;53.068;6.572;2022-07-22T01:23:38;15.00;99.90
54832;DHT22;40730;53.068;6.572;2022-07-22T01:26:05;15.00;99.90
54832;DHT22;40730;53.068;6.572;2022-07-22T01:28:31;15.00;99.90
54832;DHT22;40730;53.068;6.572;2022-07-22T01:30:57;15.00;99.90
54832;DHT22;40730;53.068;6.572;2022-07-22T01:33:23;15.00;99.90
54832;DHT22;40730;53.068;6.572;2022-07-22T01:35:50;15.00;99.90
54832;DHT22;40730;53.068;6.572;2022-07-22T01:38:16;15.00;99.90
54832;DHT22;40730;53.068;6.572;2022-07-22T01:40:43;15.00;99.90
54832;DHT22;40730;53.068;6.572;2022-07-22T01:43:09;15.00;99.90
54832;DHT22;40730;53.068;6.572;2022-07-22T01:45:35;15.00;99.90
54832;DHT22;40730;53.068;6.572;2022-07-22T01:48:01;15.00;99.90
54832;DHT22;40730;53.068;6.572;2022-07-22T01:50:27;15.00;99.90
54832;DHT22;40730;53.068;6.572;2022-07-22T01:52:52;15.00;99.90
54832;DHT22;40730;53.068;6.572;2022-07-22T01:55:18;14.90;99.90
54832;DHT22;40730;53.068;6.572;2022-07-22T01:57:44;14.90;99.90
54832;DHT22;40730;53.068;6.572;2022-07-22T02:00:11;14.90;99.90
54832;DHT22;40730;53.068;6.572;2022-07-22T02:02:37;14.90;99.90
54832;DHT22;40730;53.068;6.572;2022-07-22T02:05:05;14.90;99.90
54832;DHT22;40730;53.068;6.572;2022-07-22T02:07:31;14.90;99.90
54832;DHT22;40730;53.068;6.572;2022-07-22T02:09:56;14.90;99.90
54832;DHT22;40730;53.068;6.572;2022-07-22T02:12:22;14.90;99.90
54832;DHT22;40730;53.068;6.572;2022-07-22T02:14:48;14.90;99.90
54832;DHT22;40730;53.068;6.572;2022-07-22T02:17:14;14.90;99.90
54832;DHT22;40730;53.068;6.572;2022-07-22T02:19:40;14.90;99.90
54832;DHT22;40730;53.068;6.572;2022-07-22T02:22:05;14.90;99.90
54832;DHT22;40730;53.068;6.572;2022-07-22T02:24:31;14.90;99.90
54832;DHT22;40730;53.068;6.572;2022-07-22T02:26:57;14.90;99.90
54832;DHT22;40730;53.068;6.572;2022-07-22T02:29:22;14.90;99.90
54832;DHT22;40730;53.068;6.572;2022-07-22T02:31:48;14.90;99.90
54832;DHT22;40730;53.068;6.572;2022-07-22T02:34:14;14.90;99.90
54832;DHT22;40730;53.068;6.572;2022-07-22T02:36:39;14.90;99.90
54832;DHT22;40730;53.068;6.572;2022-07-22T02:39:05;14.90;99.90
54832;DHT22;40730;53.068;6.572;2022-07-22T02:41:31;14.90;99.90
54832;DHT22;40730;53.068;6.572;2022-07-22T02:43:57;14.90;99.90
54832;DHT22;40730;53.068;6.572;2022-07-22T02:46:24;14.90;99.90
54832;DHT22;40730;53.068;6.572;2022-07-22T02:48:50;14.90;99.90
54832;DHT22;40730;53.068;6.572;2022-07-22T02:51:16;14.90;99.90
54832;DHT22;40730;53.068;6.572;2022-07-22T02:53:42;14.80;99.90
54832;DHT22;40730;53.068;6.572;2022-07-22T02:56:07;14.80;99.90
54832;DHT22;40730;53.068;6.572;2022-07-22T02:58:33;14.80;99.90
54832;DHT22;40730;53.068;6.572;2022-07-22T03:00:59;14.80;99.90
54832;DHT22;40730;53.068;6.572;2022-07-22T03:03:24;14.80;99.90
54832;DHT22;40730;53.068;6.572;2022-07-22T03:05:50;14.80;99.90
54832;DHT22;40730;53.068;6.572;2022-07-22T03:08:16;14.80;99.90
54832;DHT22;40730;53.068;6.572;2022-07-22T03:10:42;14.80;99.90
54832;DHT22;40730;53.068;6.572;2022-07-22T03:13:08;14.80;99.90
54832;DHT22;40730;53.068;6.572;2022-07-22T03:15:33;14.80;99.90
54832;DHT22;40730;53.068;6.572;2022-07-22T03:17:59;14.80;99.90
54832;DHT22;40730;53.068;6.572;2022-07-22T03:20:24;14.80;99.90
54832;DHT22;40730;53.068;6.572;2022-07-22T03:22:50;14.80;99.90
54832;DHT22;40730;53.068;6.572;2022-07-22T03:25:15;14.80;99.90
54832;DHT22;40730;53.068;6.572;2022-07-22T03:27:41;14.80;99.90
54832;DHT22;40730;53.068;6.572;2022-07-22T03:30:07;14.80;99.90
54832;DHT22;40730;53.068;6.572;2022-07-22T03:32:32;14.80;99.90
54832;DHT22;40730;53.068;6.572;2022-07-22T03:34:58;14.80;99.90
54832;DHT22;40730;53.068;6.572;2022-07-22T03:37:24;14.80;99.90
54832;DHT22;40730;53.068;6.572;2022-07-22T03:39:49;14.80;99.90
54832;DHT22;40730;53.068;6.572;2022-07-22T03:42:15;14.80;99.90
54832;DHT22;40730;53.068;6.572;2022-07-22T03:44:41;14.80;99.90
54832;DHT22;40730;53.068;6.572;2022-07-22T03:47:06;14.80;99.90
54832;DHT22;40730;53.068;6.572;2022-07-22T03:49:32;14.80;99.90
54832;DHT22;40730;53.068;6.572;2022-07-22T03:51:58;14.80;99.90
54832;DHT22;40730;53.068;6.572;2022-07-22T03:54:24;14.70;99.90
54832;DHT22;40730;53.068;6.572;2022-07-22T03:56:49;14.70;99.90
54832;DHT22;40730;53.068;6.572;2022-07-22T03:59:16;14.80;99.90
54832;DHT22;40730;53.068;6.572;2022-07-22T04:01:41;14.70;99.90
54832;DHT22;40730;53.068;6.572;2022-07-22T04:04:07;14.70;99.90
54832;DHT22;40730;53.068;6.572;2022-07-22T04:06:33;14.70;99.90
54832;DHT22;40730;53.068;6.572;2022-07-22T04:08:58;14.70;99.90
54832;DHT22;40730;53.068;6.572;2022-07-22T04:11:24;14.70;99.90
54832;DHT22;40730;53.068;6.572;2022-07-22T04:13:49;14.70;99.90
54832;DHT22;40730;53.068;6.572;2022-07-22T04:16:15;14.70;99.90
54832;DHT22;40730;53.068;6.572;2022-07-22T04:18:40;14.70;99.90
54832;DHT22;40730;53.068;6.572;2022-07-22T04:21:06;14.80;99.90
54832;DHT22;40730;53.068;6.572;2022-07-22T04:23:32;14.70;99.90
54832;DHT22;40730;53.068;6.572;2022-07-22T04:25:57;14.80;99.90
54832;DHT22;40730;53.068;6.572;2022-07-22T04:28:23;14.80;99.90
54832;DHT22;40730;53.068;6.572;2022-07-22T04:30:49;14.80;99.90
54832;DHT22;40730;53.068;6.572;2022-07-22T04:33:14;14.80;99.90
54832;DHT22;40730;53.068;6.572;2022-07-22T04:35:40;14.80;99.90
54832;DHT22;40730;53.068;6.572;2022-07-22T04:38:05;14.80;99.90
54832;DHT22;40730;53.068;6.572;2022-07-22T04:40:31;14.80;99.90
54832;DHT22;40730;53.068;6.572;2022-07-22T04:42:57;14.90;99.90
54832;DHT22;40730;53.068;6.572;2022-07-22T04:45:22;14.90;99.90
54832;DHT22;40730;53.068;6.572;2022-07-22T04:47:48;14.90;99.90
54832;DHT22;40730;53.068;6.572;2022-07-22T04:50:13;14.90;99.90
54832;DHT22;40730;53.068;6.572;2022-07-22T04:52:39;14.90;99.90
54832;DHT22;40730;53.068;6.572;2022-07-22T04:55:05;14.90;99.90
54832;DHT22;40730;53.068;6.572;2022-07-22T04:57:31;14.90;99.90
54832;DHT22;40730;53.068;6.572;2022-07-22T04:59:56;14.90;99.90
54832;DHT22;40730;53.068;6.572;2022-07-22T05:02:22;15.00;99.90
54832;DHT22;40730;53.068;6.572;2022-07-22T05:04:47;15.00;99.90
54832;DHT22;40730;53.068;6.572;2022-07-22T05:07:13;15.00;99.90
54832;DHT22;40730;53.068;6.572;2022-07-22T05:09:38;15.00;99.90
54832;DHT22;40730;53.068;6.572;2022-07-22T05:12:04;15.10;99.90
54832;DHT22;40730;53.068;6.572;2022-07-22T05:14:30;15.10;99.90
54832;DHT22;40730;53.068;6.572;2022-07-22T05:16:56;15.20;99.90
54832;DHT22;40730;53.068;6.572;2022-07-22T05:19:22;15.20;99.90
54832;DHT22;40730;53.068;6.572;2022-07-22T05:21:47;15.20;99.90
54832;DHT22;40730;53.068;6.572;2022-07-22T05:24:13;15.30;99.90
54832;DHT22;40730;53.068;6.572;2022-07-22T05:26:38;15.30;99.90
54832;DHT22;40730;53.068;6.572;2022-07-22T05:29:04;15.30;99.90
54832;DHT22;40730;53.068;6.572;2022-07-22T05:31:30;15.30;99.90
54832;DHT22;40730;53.068;6.572;2022-07-22T05:33:56;15.30;99.90
54832;DHT22;40730;53.068;6.572;2022-07-22T05:36:21;15.40;99.90
54832;DHT22;40730;53.068;6.572;2022-07-22T05:38:47;15.40;99.90
54832;DHT22;40730;53.068;6.572;2022-07-22T05:41:13;15.40;99.90
54832;DHT22;40730;53.068;6.572;2022-07-22T05:43:39;15.40;99.90
54832;DHT22;40730;53.068;6.572;2022-07-22T05:46:05;15.40;99.90
54832;DHT22;40730;53.068;6.572;2022-07-22T05:48:30;15.50;99.90
54832;DHT22;40730;53.068;6.572;2022-07-22T05:50:56;15.50;99.90
54832;DHT22;40730;53.068;6.572;2022-07-22T05:53:22;15.60;99.90
54832;DHT22;40730;53.068;6.572;2022-07-22T05:55:47;15.60;99.90
54832;DHT22;40730;53.068;6.572;2022-07-22T05:58:13;15.60;99.90
54832;DHT22;40730;53.068;6.572;2022-07-22T06:00:39;15.70;99.90
54832;DHT22;40730;53.068;6.572;2022-07-22T06:03:05;15.70;99.90
54832;DHT22;40730;53.068;6.572;2022-07-22T06:05:31;15.80;99.90
54832;DHT22;40730;53.068;6.572;2022-07-22T06:07:56;15.80;99.90
54832;DHT22;40730;53.068;6.572;2022-07-22T06:10:22;15.80;99.90
54832;DHT22;40730;53.068;6.572;2022-07-22T06:12:48;15.80;99.90
54832;DHT22;40730;53.068;6.572;2022-07-22T06:15:13;15.80;99.90
54832;DHT22;40730;53.068;6.572;2022-07-22T06:17:39;15.90;99.90
54832;DHT22;40730;53.068;6.572;2022-07-22T06:20:05;15.90;99.90
54832;DHT22;40730;53.068;6.572;2022-07-22T06:22:31;15.90;99.90
54832;DHT22;40730;53.068;6.572;2022-07-22T06:24:56;16.00;99.90
54832;DHT22;40730;53.068;6.572;2022-07-22T06:27:22;16.00;99.90
54832;DHT22;40730;53.068;6.572;2022-07-22T06:29:48;16.10;99.90
54832;DHT22;40730;53.068;6.572;2022-07-22T06:32:13;16.10;99.90
54832;DHT22;40730;53.068;6.572;2022-07-22T06:34:39;16.20;99.90
54832;DHT22;40730;53.068;6.572;2022-07-22T06:37:05;16.20;99.90
54832;DHT22;40730;53.068;6.572;2022-07-22T06:39:30;16.20;99.90
54832;DHT22;40730;53.068;6.572;2022-07-22T06:41:56;16.20;99.90
54832;DHT22;40730;53.068;6.572;2022-07-22T06:44:21;16.20;99.90
54832;DHT22;40730;53.068;6.572;2022-07-22T06:46:47;16.30;99.90
54832;DHT22;40730;53.068;6.572;2022-07-22T06:49:13;16.30;99.90
54832;DHT22;40730;53.068;6.572;2022-07-22T06:51:38;16.40;99.90
54832;DHT22;40730;53.068;6.572;2022-07-22T06:54:04;16.50;99.90
54832;DHT22;40730;53.068;6.572;2022-07-22T06:56:30;16.50;99.90
54832;DHT22;40730;53.068;6.572;2022-07-22T06:58:55;16.60;99.90
54832;DHT22;40730;53.068;6.572;2022-07-22T07:01:21;16.70;99.90
54832;DHT22;40730;53.068;6.572;2022-07-22T07:03:46;16.80;99.90
54832;DHT22;40730;53.068;6.572;2022-07-22T07:06:12;16.80;99.90
54832;DHT22;40730;53.068;6.572;2022-07-22T07:08:39;16.80;99.90
54832;DHT22;40730;53.068;6.572;2022-07-22T07:11:05;16.90;99.90
54832;DHT22;40730;53.068;6.572;2022-07-22T07:13:31;16.90;99.90
54832;DHT22;40730;53.068;6.572;2022-07-22T07:15:56;17.00;99.90
54832;DHT22;40730;53.068;6.572;2022-07-22T07:18:22;17.00;99.90
54832;DHT22;40730;53.068;6.572;2022-07-22T07:20:48;17.10;99.90
54832;DHT22;40730;53.068;6.572;2022-07-22T07:23:14;17.10;99.90
54832;DHT22;40730;53.068;6.572;2022-07-22T07:25:39;17.20;99.90
54832;DHT22;40730;53.068;6.572;2022-07-22T07:28:05;17.10;99.90
54832;DHT22;40730;53.068;6.572;2022-07-22T07:30:31;17.10;99.90
54832;DHT22;40730;53.068;6.572;2022-07-22T07:32:56;17.20;99.90
54832;DHT22;40730;53.068;6.572;2022-07-22T07:35:22;17.20;99.90
54832;DHT22;40730;53.068;6.572;2022-07-22T07:37:48;17.20;99.90
54832;DHT22;40730;53.068;6.572;2022-07-22T07:40:14;17.30;99.90
54832;DHT22;40730;53.068;6.572;2022-07-22T07:42:40;17.30;99.90
54832;DHT22;40730;53.068;6.572;2022-07-22T07:45:06;17.40;99.90
54832;DHT22;40730;53.068;6.572;2022-07-22T07:47:31;17.50;99.90
54832;DHT22;40730;53.068;6.572;2022-07-22T07:49:57;17.50;99.90
54832;DHT22;40730;53.068;6.572;2022-07-22T07:52:25;17.60;99.90
54832;DHT22;40730;53.068;6.572;2022-07-22T07:54:51;17.70;99.90
54832;DHT22;40730;53.068;6.572;2022-07-22T07:57:17;17.70;99.90
54832;DHT22;40730;53.068;6.572;2022-07-22T07:59:43;17.70;99.90
54832;DHT22;40730;53.068;6.572;2022-07-22T08:02:08;17.60;99.90
54832;DHT22;40730;53.068;6.572;2022-07-22T08:04:37;17.50;99.90
54832;DHT22;40730;53.068;6.572;2022-07-22T08:07:04;17.50;99.90
54832;DHT22;40730;53.068;6.572;2022-07-22T08:09:30;17.40;99.90
54832;DHT22;40730;53.068;6.572;2022-07-22T08:11:56;17.30;99.90
54832;DHT22;40730;53.068;6.572;2022-07-22T08:14:21;17.30;99.90
54832;DHT22;40730;53.068;6.572;2022-07-22T08:16:48;17.30;99.90
54832;DHT22;40730;53.068;6.572;2022-07-22T08:19:13;17.20;99.90
54832;DHT22;40730;53.068;6.572;2022-07-22T08:21:39;17.20;99.90
54832;DHT22;40730;53.068;6.572;2022-07-22T08:24:08;17.20;99.90
54832;DHT22;40730;53.068;6.572;2022-07-22T08:26:34;17.20;99.90
54832;DHT22;40730;53.068;6.572;2022-07-22T08:29:00;17.20;99.90
54832;DHT22;40730;53.068;6.572;2022-07-22T08:31:27;17.10;99.90
54832;DHT22;40730;53.068;6.572;2022-07-22T08:33:53;17.20;99.90
54832;DHT22;40730;53.068;6.572;2022-07-22T08:36:19;17.00;99.90
54832;DHT22;40730;53.068;6.572;2022-07-22T08:38:44;17.00;99.90
54832;DHT22;40730;53.068;6.572;2022-07-22T08:41:10;17.00;99.90
54832;DHT22;40730;53.068;6.572;2022-07-22T08:43:38;17.00;99.90
54832;DHT22;40730;53.068;6.572;2022-07-22T08:46:09;17.00;99.90
54832;DHT22;40730;53.068;6.572;2022-07-22T08:48:37;17.00;99.90
54832;DHT22;40730;53.068;6.572;2022-07-22T08:51:03;17.10;99.90
54832;DHT22;40730;53.068;6.572;2022-07-22T08:53:28;17.10;99.90
54832;DHT22;40730;53.068;6.572;2022-07-22T08:55:54;17.20;99.90
54832;DHT22;40730;53.068;6.572;2022-07-22T08:58:20;17.30;99.90
54832;DHT22;40730;53.068;6.572;2022-07-22T09:00:46;17.40;99.90
54832;DHT22;40730;53.068;6.572;2022-07-22T09:03:18;17.40;99.90
54832;DHT22;40730;53.068;6.572;2022-07-22T09:05:46;17.70;99.90
54832;DHT22;40730;53.068;6.572;2022-07-22T09:08:11;17.50;99.90
54832;DHT22;40730;53.068;6.572;2022-07-22T09:10:37;17.60;99.90
54832;DHT22;40730;53.068;6.572;2022-07-22T09:13:09;17.60;99.90
54832;DHT22;40730;53.068;6.572;2022-07-22T09:15:45;17.60;99.90
54832;DHT22;40730;53.068;6.572;2022-07-22T09:18:11;17.70;99.90
54832;DHT22;40730;53.068;6.572;2022-07-22T09:20:37;17.70;99.90
54832;DHT22;40730;53.068;6.572;2022-07-22T09:23:14;17.70;99.90
54832;DHT22;40730;53.068;6.572;2022-07-22T09:25:41;17.80;99.90
54832;DHT22;40730;53.068;6.572;2022-07-22T09:30:37;17.70;99.90
54832;DHT22;40730;53.068;6.572;2022-07-22T09:33:04;17.70;99.90
54832;DHT22;40730;53.068;6.572;2022-07-22T09:35:30;17.70;99.90
54832;DHT22;40730;53.068;6.572;2022-07-22T09:38:00;17.80;99.90
54832;DHT22;40730;53.068;6.572;2022-07-22T09:40:30;17.80;99.90
54832;DHT22;40730;53.068;6.572;2022-07-22T09:42:58;17.80;99.90
54832;DHT22;40730;53.068;6.572;2022-07-22T09:45:27;17.70;99.90
54832;DHT22;40730;53.068;6.572;2022-07-22T09:47:55;17.60;99.90
54832;DHT22;40730;53.068;6.572;2022-07-22T09:50:22;17.60;99.90
54832;DHT22;40730;53.068;6.572;2022-07-22T09:52:50;17.50;99.90
54832;DHT22;40730;53.068;6.572;2022-07-22T09:55:18;17.50;99.90
54832;DHT22;40730;53.068;6.572;2022-07-22T09:57:45;17.50;99.90
54832;DHT22;40730;53.068;6.572;2022-07-22T10:00:13;17.50;99.90
54832;DHT22;40730;53.068;6.572;2022-07-22T10:02:51;17.60;99.90
54832;DHT22;40730;53.068;6.572;2022-07-22T10:05:19;17.70;99.90
54832;DHT22;40730;53.068;6.572;2022-07-22T10:07:46;17.70;99.90
54832;DHT22;40730;53.068;6.572;2022-07-22T10:10:15;17.70;99.90
54832;DHT22;40730;53.068;6.572;2022-07-22T10:12:42;17.70;99.90
54832;DHT22;40730;53.068;6.572;2022-07-22T10:15:09;17.80;99.90
54832;DHT22;40730;53.068;6.572;2022-07-22T10:17:36;17.80;99.90
54832;DHT22;40730;53.068;6.572;2022-07-22T10:20:04;17.90;99.90
54832;DHT22;40730;53.068;6.572;2022-07-22T10:25:10;17.80;99.90
54832;DHT22;40730;53.068;6.572;2022-07-22T10:30:37;17.70;99.90
54832;DHT22;40730;53.068;6.572;2022-07-22T10:33:20;17.60;99.90
54832;DHT22;40730;53.068;6.572;2022-07-22T10:35:56;17.60;99.90
54832;DHT22;40730;53.068;6.572;2022-07-22T10:38:23;17.60;99.90
54832;DHT22;40730;53.068;6.572;2022-07-22T10:40:57;17.70;99.90
54832;DHT22;40730;53.068;6.572;2022-07-22T10:43:30;17.80;99.90
54832;DHT22;40730;53.068;6.572;2022-07-22T10:46:00;17.90;99.90
54832;DHT22;40730;53.068;6.572;2022-07-22T10:51:14;18.40;99.90
54832;DHT22;40730;53.068;6.572;2022-07-22T10:59:10;19.00;99.90
54832;DHT22;40730;53.068;6.572;2022-07-22T11:01:39;19.10;99.90
54832;DHT22;40730;53.068;6.572;2022-07-22T11:04:21;19.10;99.90
54832;DHT22;40730;53.068;6.572;2022-07-22T11:06:49;19.20;99.90
54832;DHT22;40730;53.068;6.572;2022-07-22T11:09:17;19.20;99.90
54832;DHT22;40730;53.068;6.572;2022-07-22T11:11:52;19.40;99.90
54832;DHT22;40730;53.068;6.572;2022-07-22T11:14:28;19.30;99.90
54832;DHT22;40730;53.068;6.572;2022-07-22T11:17:04;19.20;99.90
54832;DHT22;40730;53.068;6.572;2022-07-22T11:19:31;18.90;99.90
54832;DHT22;40730;53.068;6.572;2022-07-22T11:22:02;18.60;99.90
54832;DHT22;40730;53.068;6.572;2022-07-22T11:24:29;18.60;99.90
54832;DHT22;40730;53.068;6.572;2022-07-22T11:26:56;18.50;99.90
54832;DHT22;40730;53.068;6.572;2022-07-22T11:29:49;18.50;99.90
54832;DHT22;40730;53.068;6.572;2022-07-22T11:32:16;18.50;99.90
54832;DHT22;40730;53.068;6.572;2022-07-22T11:34:43;18.50;99.90
54832;DHT22;40730;53.068;6.572;2022-07-22T11:37:13;18.50;99.90
54832;DHT22;40730;53.068;6.572;2022-07-22T11:39:39;18.50;99.90
54832;DHT22;40730;53.068;6.572;2022-07-22T11:42:05;18.60;99.90
54832;DHT22;40730;53.068;6.572;2022-07-22T11:44:33;18.70;99.90
54832;DHT22;40730;53.068;6.572;2022-07-22T11:46:59;18.80;99.90
54832;DHT22;40730;53.068;6.572;2022-07-22T11:49:27;18.90;99.90
54832;DHT22;40730;53.068;6.572;2022-07-22T11:51:53;19.00;99.90
54832;DHT22;40730;53.068;6.572;2022-07-22T11:54:19;19.10;99.90
54832;DHT22;40730;53.068;6.572;2022-07-22T11:56:45;19.00;99.90
54832;DHT22;40730;53.068;6.572;2022-07-22T11:59:15;19.10;99.90
54832;DHT22;40730;53.068;6.572;2022-07-22T12:01:46;19.10;99.90
54832;DHT22;40730;53.068;6.572;2022-07-22T12:08:17;19.20;97.10
54832;DHT22;40730;53.068;6.572;2022-07-22T12:11:13;19.40;96.10
54832;DHT22;40730;53.068;6.572;2022-07-22T12:13:45;19.50;97.10
54832;DHT22;40730;53.068;6.572;2022-07-22T12:16:45;19.50;96.70
54832;DHT22;40730;53.068;6.572;2022-07-22T12:19:29;19.80;95.00
54832;DHT22;40730;53.068;6.572;2022-07-22T12:22:01;19.90;93.20
54832;DHT22;40730;53.068;6.572;2022-07-22T12:24:39;19.90;93.00
54832;DHT22;40730;53.068;6.572;2022-07-22T12:27:08;19.90;93.30
54832;DHT22;40730;53.068;6.572;2022-07-22T12:37:20;19.70;92.10
54832;DHT22;40730;53.068;6.572;2022-07-22T12:40:19;19.60;92.10
54832;DHT22;40730;53.068;6.572;2022-07-22T12:42:47;19.50;92.30
54832;DHT22;40730;53.068;6.572;2022-07-22T12:45:24;19.40;93.30
54832;DHT22;40730;53.068;6.572;2022-07-22T12:47:53;19.30;94.60
54832;DHT22;40730;53.068;6.572;2022-07-22T12:53:03;19.00;97.40
54832;DHT22;40730;53.068;6.572;2022-07-22T12:55:30;19.00;98.10
54832;DHT22;40730;53.068;6.572;2022-07-22T12:57:55;18.90;98.60
54832;DHT22;40730;53.068;6.572;2022-07-22T13:00:26;18.80;98.30
54832;DHT22;40730;53.068;6.572;2022-07-22T13:02:53;18.70;98.10
54832;DHT22;40730;53.068;6.572;2022-07-22T13:05:19;18.70;97.70
54832;DHT22;40730;53.068;6.572;2022-07-22T13:07:44;18.50;96.90
54832;DHT22;40730;53.068;6.572;2022-07-22T13:10:11;18.40;97.30
54832;DHT22;40730;53.068;6.572;2022-07-22T13:12:37;18.40;98.00
54832;DHT22;40730;53.068;6.572;2022-07-22T13:15:03;18.40;98.30
54832;DHT22;40730;53.068;6.572;2022-07-22T13:17:29;18.40;98.90
54832;DHT22;40730;53.068;6.572;2022-07-22T13:19:55;18.40;98.30
54832;DHT22;40730;53.068;6.572;2022-07-22T13:22:20;18.40;98.30
54832;DHT22;40730;53.068;6.572;2022-07-22T13:24:46;18.50;98.50
54832;DHT22;40730;53.068;6.572;2022-07-22T13:27:11;18.60;98.80
54832;DHT22;40730;53.068;6.572;2022-07-22T13:29:37;18.70;98.30
54832;DHT22;40730;53.068;6.572;2022-07-22T13:32:03;18.70;98.20
54832;DHT22;40730;53.068;6.572;2022-07-22T13:34:29;18.80;98.10
54832;DHT22;40730;53.068;6.572;2022-07-22T13:36:54;18.80;98.00
54832;DHT22;40730;53.068;6.572;2022-07-22T13:39:21;18.80;97.70
54832;DHT22;40730;53.068;6.572;2022-07-22T13:41:47;18.80;97.60
54832;DHT22;40730;53.068;6.572;2022-07-22T13:44:13;18.80;97.40
54832;DHT22;40730;53.068;6.572;2022-07-22T13:46:38;18.80;97.40
54832;DHT22;40730;53.068;6.572;2022-07-22T13:49:04;18.90;97.20
54832;DHT22;40730;53.068;6.572;2022-07-22T13:51:29;18.90;96.50
54832;DHT22;40730;53.068;6.572;2022-07-22T13:53:56;18.90;96.60
54832;DHT22;40730;53.068;6.572;2022-07-22T13:56:22;18.80;96.10
54832;DHT22;40730;53.068;6.572;2022-07-22T13:58:47;18.90;96.80
54832;DHT22;40730;53.068;6.572;2022-07-22T14:01:13;18.90;96.50
54832;DHT22;40730;53.068;6.572;2022-07-22T14:03:39;18.90;96.30
54832;DHT22;40730;53.068;6.572;2022-07-22T14:06:05;19.00;95.90
54832;DHT22;40730;53.068;6.572;2022-07-22T14:08:31;19.00;96.60
54832;DHT22;40730;53.068;6.572;2022-07-22T14:10:57;19.00;96.40
54832;DHT22;40730;53.068;6.572;2022-07-22T14:13:23;19.00;96.40
54832;DHT22;40730;53.068;6.572;2022-07-22T14:15:49;19.00;96.10
54832;DHT22;40730;53.068;6.572;2022-07-22T14:18:15;19.00;96.50
54832;DHT22;40730;53.068;6.572;2022-07-22T14:20:40;19.00;95.50
54832;DHT22;40730;53.068;6.572;2022-07-22T14:23:07;18.90;94.70
54832;DHT22;40730;53.068;6.572;2022-07-22T14:25:36;19.00;95.30
54832;DHT22;40730;53.068;6.572;2022-07-22T14:28:02;19.00;95.10
54832;DHT22;40730;53.068;6.572;2022-07-22T14:30:28;19.00;95.80
54832;DHT22;40730;53.068;6.572;2022-07-22T14:32:54;19.20;95.50
54832;DHT22;40730;53.068;6.572;2022-07-22T14:35:20;19.40;95.30
54832;DHT22;40730;53.068;6.572;2022-07-22T14:37:46;19.50;94.50
54832;DHT22;40730;53.068;6.572;2022-07-22T14:40:12;19.60;94.00
54832;DHT22;40730;53.068;6.572;2022-07-22T14:42:38;19.60;94.10
54832;DHT22;40730;53.068;6.572;2022-07-22T14:45:05;19.60;93.80
54832;DHT22;40730;53.068;6.572;2022-07-22T14:47:31;19.40;94.50
54832;DHT22;40730;53.068;6.572;2022-07-22T14:49:57;19.30;94.90
54832;DHT22;40730;53.068;6.572;2022-07-22T14:52:22;19.10;94.50
54832;DHT22;40730;53.068;6.572;2022-07-22T14:54:48;19.00;95.40
54832;DHT22;40730;53.068;6.572;2022-07-22T14:57:13;18.90;95.60
54832;DHT22;40730;53.068;6.572;2022-07-22T14:59:40;18.70;96.10
54832;DHT22;40730;53.068;6.572;2022-07-22T15:02:05;18.60;96.70
54832;DHT22;40730;53.068;6.572;2022-07-22T15:04:31;18.50;97.30
54832;DHT22;40730;53.068;6.572;2022-07-22T15:06:57;18.50;97.70
54832;DHT22;40730;53.068;6.572;2022-07-22T15:09:22;18.50;98.00
54832;DHT22;40730;53.068;6.572;2022-07-22T15:11:48;18.50;98.50
54832;DHT22;40730;53.068;6.572;2022-07-22T15:14:14;18.50;98.90
54832;DHT22;40730;53.068;6.572;2022-07-22T15:16:40;18.50;98.90
54832;DHT22;40730;53.068;6.572;2022-07-22T15:19:05;18.50;99.20
54832;DHT22;40730;53.068;6.572;2022-07-22T15:21:31;18.50;99.20
54832;DHT22;40730;53.068;6.572;2022-07-22T15:23:57;18.50;99.10
54832;DHT22;40730;53.068;6.572;2022-07-22T15:26:23;18.40;99.50
54832;DHT22;40730;53.068;6.572;2022-07-22T15:28:49;18.50;99.30
54832;DHT22;40730;53.068;6.572;2022-07-22T15:31:16;18.50;99.10
54832;DHT22;40730;53.068;6.572;2022-07-22T15:33:42;18.50;99.20
54832;DHT22;40730;53.068;6.572;2022-07-22T15:36:08;18.40;99.20
54832;DHT22;40730;53.068;6.572;2022-07-22T15:38:35;18.40;99.50
54832;DHT22;40730;53.068;6.572;2022-07-22T15:41:02;18.30;99.90
54832;DHT22;40730;53.068;6.572;2022-07-22T15:43:27;18.30;99.90
54832;DHT22;40730;53.068;6.572;2022-07-22T15:45:53;18.30;99.90
54832;DHT22;40730;53.068;6.572;2022-07-22T15:48:18;18.20;99.90
54832;DHT22;40730;53.068;6.572;2022-07-22T15:50:44;18.30;99.90
54832;DHT22;40730;53.068;6.572;2022-07-22T15:53:09;18.30;99.90
54832;DHT22;40730;53.068;6.572;2022-07-22T15:55:35;18.20;99.90
54832;DHT22;40730;53.068;6.572;2022-07-22T15:58:01;18.30;99.90